Terminal Aerodrome Forecast
Issued by NWS Grand Forks, ND

Home | Current Version | Previous Version | Text Only | Print | Product List | Glossary On
Versions: 1 2 3 4 5 6 7 8 9 10 11 12 13 14 15 16 17 18 19 20 21 22 23 24 25
976
FTUS43 KFGF 271130
TAFGFK
TAF
KGFK 271130Z 2712/2812 24009KT P6SM FEW100 SCT250
     FM271800 25015G23KT P6SM SCT150
     FM280100 29010KT P6SM BKN100=

USA.gov is the U.S. government's official web portal to all federal, state and local government web resources and services.